sensor_id;sensor_type;location;lat;lon;timestamp;temperature;humidity
7196;DHT22;3639;51.308;5.624;2023-02-24T00:01:21;5.00;99.90
7196;DHT22;3639;51.308;5.624;2023-02-24T00:03:54;5.10;99.90
7196;DHT22;3639;51.308;5.624;2023-02-24T00:06:26;5.10;99.90
7196;DHT22;3639;51.308;5.624;2023-02-24T00:09:01;5.10;99.90
7196;DHT22;3639;51.308;5.624;2023-02-24T00:11:27;5.10;99.90
7196;DHT22;3639;51.308;5.624;2023-02-24T00:13:52;5.10;99.90
7196;DHT22;3639;51.308;5.624;2023-02-24T00:16:18;5.10;99.90
7196;DHT22;3639;51.308;5.624;2023-02-24T00:18:44;5.00;99.90
7196;DHT22;3639;51.308;5.624;2023-02-24T00:21:15;5.10;99.90
7196;DHT22;3639;51.308;5.624;2023-02-24T00:23:42;5.00;99.90
7196;DHT22;3639;51.308;5.624;2023-02-24T00:26:10;5.00;99.90
7196;DHT22;3639;51.308;5.624;2023-02-24T00:28:36;5.00;99.90
7196;DHT22;3639;51.308;5.624;2023-02-24T00:31:12;5.00;99.90
7196;DHT22;3639;51.308;5.624;2023-02-24T00:33:39;5.00;99.90
7196;DHT22;3639;51.308;5.624;2023-02-24T00:36:14;4.90;99.90
7196;DHT22;3639;51.308;5.624;2023-02-24T00:38:40;4.90;99.90
7196;DHT22;3639;51.308;5.624;2023-02-24T00:41:17;4.90;99.90
7196;DHT22;3639;51.308;5.624;2023-02-24T00:43:45;4.90;99.90
7196;DHT22;3639;51.308;5.624;2023-02-24T00:46:18;4.90;99.90
7196;DHT22;3639;51.308;5.624;2023-02-24T00:48:49;4.90;99.90
7196;DHT22;3639;51.308;5.624;2023-02-24T00:51:22;5.00;99.90
7196;DHT22;3639;51.308;5.624;2023-02-24T00:53:56;5.00;99.90
7196;DHT22;3639;51.308;5.624;2023-02-24T00:56:23;5.00;99.90
7196;DHT22;3639;51.308;5.624;2023-02-24T00:58:52;5.00;99.90
7196;DHT22;3639;51.308;5.624;2023-02-24T01:01:19;5.10;99.90
7196;DHT22;3639;51.308;5.624;2023-02-24T01:03:46;5.10;99.90
7196;DHT22;3639;51.308;5.624;2023-02-24T01:06:17;5.10;99.90
7196;DHT22;3639;51.308;5.624;2023-02-24T01:08:48;5.10;99.90
7196;DHT22;3639;51.308;5.624;2023-02-24T01:11:16;5.00;99.90
7196;DHT22;3639;51.308;5.624;2023-02-24T01:14:09;5.00;99.90
7196;DHT22;3639;51.308;5.624;2023-02-24T01:16:36;5.00;99.90
7196;DHT22;3639;51.308;5.624;2023-02-24T01:19:03;5.00;99.90
7196;DHT22;3639;51.308;5.624;2023-02-24T01:21:30;5.00;99.90
7196;DHT22;3639;51.308;5.624;2023-02-24T01:23:56;4.90;99.90
7196;DHT22;3639;51.308;5.624;2023-02-24T01:26:22;5.00;99.90
7196;DHT22;3639;51.308;5.624;2023-02-24T01:28:47;5.00;99.90
7196;DHT22;3639;51.308;5.624;2023-02-24T01:31:14;5.00;99.90
7196;DHT22;3639;51.308;5.624;2023-02-24T01:33:46;5.00;99.90
7196;DHT22;3639;51.308;5.624;2023-02-24T01:38:39;4.90;99.90
7196;DHT22;3639;51.308;5.624;2023-02-24T01:41:08;4.90;99.90
7196;DHT22;3639;51.308;5.624;2023-02-24T01:46:25;4.90;99.90
7196;DHT22;3639;51.308;5.624;2023-02-24T01:48:54;4.90;99.90
7196;DHT22;3639;51.308;5.624;2023-02-24T01:51:21;4.90;99.90
7196;DHT22;3639;51.308;5.624;2023-02-24T01:53:47;4.80;99.90
7196;DHT22;3639;51.308;5.624;2023-02-24T01:56:14;4.90;99.90
7196;DHT22;3639;51.308;5.624;2023-02-24T01:58:40;4.80;99.90
7196;DHT22;3639;51.308;5.624;2023-02-24T02:01:08;4.90;99.90
7196;DHT22;3639;51.308;5.624;2023-02-24T02:03:37;4.90;99.90
7196;DHT22;3639;51.308;5.624;2023-02-24T02:06:08;4.90;99.90
7196;DHT22;3639;51.308;5.624;2023-02-24T02:08:38;4.90;99.90
7196;DHT22;3639;51.308;5.624;2023-02-24T02:11:09;4.90;99.90
7196;DHT22;3639;51.308;5.624;2023-02-24T02:13:36;4.90;99.90
7196;DHT22;3639;51.308;5.624;2023-02-24T02:16:19;4.90;99.90
7196;DHT22;3639;51.308;5.624;2023-02-24T02:33:02;5.00;99.90
7196;DHT22;3639;51.308;5.624;2023-02-24T02:35:47;5.00;99.90
7196;DHT22;3639;51.308;5.624;2023-02-24T02:38:25;5.10;99.90
7196;DHT22;3639;51.308;5.624;2023-02-24T02:41:06;5.00;99.90
7196;DHT22;3639;51.308;5.624;2023-02-24T02:44:03;5.00;99.90
7196;DHT22;3639;51.308;5.624;2023-02-24T02:46:36;5.00;99.90
7196;DHT22;3639;51.308;5.624;2023-02-24T02:49:23;5.00;99.90
7196;DHT22;3639;51.308;5.624;2023-02-24T02:51:56;5.00;99.90
7196;DHT22;3639;51.308;5.624;2023-02-24T02:54:32;5.00;99.90
7196;DHT22;3639;51.308;5.624;2023-02-24T02:59:32;5.00;99.90
7196;DHT22;3639;51.308;5.624;2023-02-24T03:02:00;5.00;99.90
7196;DHT22;3639;51.308;5.624;2023-02-24T03:04:41;5.10;99.90
7196;DHT22;3639;51.308;5.624;2023-02-24T03:07:12;5.10;99.90
7196;DHT22;3639;51.308;5.624;2023-02-24T03:09:41;5.10;99.90
7196;DHT22;3639;51.308;5.624;2023-02-24T03:12:14;5.00;99.90
7196;DHT22;3639;51.308;5.624;2023-02-24T03:14:45;5.00;99.90
7196;DHT22;3639;51.308;5.624;2023-02-24T03:17:19;5.00;99.90
7196;DHT22;3639;51.308;5.624;2023-02-24T03:19:50;5.00;99.90
7196;DHT22;3639;51.308;5.624;2023-02-24T03:22:28;5.00;99.90
7196;DHT22;3639;51.308;5.624;2023-02-24T03:24:59;5.10;99.90
7196;DHT22;3639;51.308;5.624;2023-02-24T03:27:29;5.00;99.90
7196;DHT22;3639;51.308;5.624;2023-02-24T03:30:04;5.00;99.90
7196;DHT22;3639;51.308;5.624;2023-02-24T03:32:38;5.00;99.90
7196;DHT22;3639;51.308;5.624;2023-02-24T03:35:36;4.90;99.90
7196;DHT22;3639;51.308;5.624;2023-02-24T03:38:03;4.90;99.90
7196;DHT22;3639;51.308;5.624;2023-02-24T03:40:30;4.90;99.90
7196;DHT22;3639;51.308;5.624;2023-02-24T03:43:24;4.90;99.90
7196;DHT22;3639;51.308;5.624;2023-02-24T03:45:51;4.90;99.90
7196;DHT22;3639;51.308;5.624;2023-02-24T03:48:17;4.90;99.90
7196;DHT22;3639;51.308;5.624;2023-02-24T03:50:43;4.90;99.90
7196;DHT22;3639;51.308;5.624;2023-02-24T03:53:46;4.90;99.90
7196;DHT22;3639;51.308;5.624;2023-02-24T04:01:55;4.90;99.90
7196;DHT22;3639;51.308;5.624;2023-02-24T04:07:00;4.90;99.90
7196;DHT22;3639;51.308;5.624;2023-02-24T04:14:54;4.80;99.90
7196;DHT22;3639;51.308;5.624;2023-02-24T04:20:06;4.80;99.90
7196;DHT22;3639;51.308;5.624;2023-02-24T04:22:47;4.80;99.90
7196;DHT22;3639;51.308;5.624;2023-02-24T04:25:20;4.80;99.90
7196;DHT22;3639;51.308;5.624;2023-02-24T04:27:54;4.80;99.90
7196;DHT22;3639;51.308;5.624;2023-02-24T04:30:21;4.80;99.90
7196;DHT22;3639;51.308;5.624;2023-02-24T04:32:48;4.80;99.90
7196;DHT22;3639;51.308;5.624;2023-02-24T04:35:18;4.70;99.90
7196;DHT22;3639;51.308;5.624;2023-02-24T04:37:44;4.70;99.90
7196;DHT22;3639;51.308;5.624;2023-02-24T04:40:15;4.70;99.90
7196;DHT22;3639;51.308;5.624;2023-02-24T04:42:43;4.70;99.90
7196;DHT22;3639;51.308;5.624;2023-02-24T04:45:14;4.70;99.90
7196;DHT22;3639;51.308;5.624;2023-02-24T04:47:44;4.70;99.90
7196;DHT22;3639;51.308;5.624;2023-02-24T04:50:19;4.70;99.90
7196;DHT22;3639;51.308;5.624;2023-02-24T04:52:59;4.70;99.90
7196;DHT22;3639;51.308;5.624;2023-02-24T04:55:27;4.70;99.90
7196;DHT22;3639;51.308;5.624;2023-02-24T04:58:00;4.60;99.90
7196;DHT22;3639;51.308;5.624;2023-02-24T05:00:27;4.60;99.90
7196;DHT22;3639;51.308;5.624;2023-02-24T05:02:58;4.60;99.90
7196;DHT22;3639;51.308;5.624;2023-02-24T05:05:26;4.60;99.90
7196;DHT22;3639;51.308;5.624;2023-02-24T05:07:56;4.60;99.90
7196;DHT22;3639;51.308;5.624;2023-02-24T05:10:28;4.60;99.90
7196;DHT22;3639;51.308;5.624;2023-02-24T05:12:55;4.60;99.90
7196;DHT22;3639;51.308;5.624;2023-02-24T05:15:25;4.60;99.90
7196;DHT22;3639;51.308;5.624;2023-02-24T05:17:57;4.60;99.90
7196;DHT22;3639;51.308;5.624;2023-02-24T05:20:22;4.60;99.90
7196;DHT22;3639;51.308;5.624;2023-02-24T05:23:07;4.60;99.90
7196;DHT22;3639;51.308;5.624;2023-02-24T05:25:34;4.60;99.90
7196;DHT22;3639;51.308;5.624;2023-02-24T05:28:03;4.60;99.90
7196;DHT22;3639;51.308;5.624;2023-02-24T05:30:29;4.60;99.90
7196;DHT22;3639;51.308;5.624;2023-02-24T05:32:55;4.60;99.90
7196;DHT22;3639;51.308;5.624;2023-02-24T05:35:20;4.60;99.90
7196;DHT22;3639;51.308;5.624;2023-02-24T05:37:46;4.60;99.90
7196;DHT22;3639;51.308;5.624;2023-02-24T05:40:12;4.60;99.90
7196;DHT22;3639;51.308;5.624;2023-02-24T05:42:39;4.60;99.90
7196;DHT22;3639;51.308;5.624;2023-02-24T05:45:07;4.60;99.90
7196;DHT22;3639;51.308;5.624;2023-02-24T05:47:33;4.60;99.90
7196;DHT22;3639;51.308;5.624;2023-02-24T05:50:01;4.60;99.90
7196;DHT22;3639;51.308;5.624;2023-02-24T05:52:27;4.50;99.90
7196;DHT22;3639;51.308;5.624;2023-02-24T05:54:53;4.60;99.90
7196;DHT22;3639;51.308;5.624;2023-02-24T05:57:19;4.50;99.90
7196;DHT22;3639;51.308;5.624;2023-02-24T05:59:48;4.50;99.90
7196;DHT22;3639;51.308;5.624;2023-02-24T06:02:17;4.50;99.90
7196;DHT22;3639;51.308;5.624;2023-02-24T06:04:51;4.50;99.90
7196;DHT22;3639;51.308;5.624;2023-02-24T06:07:25;4.50;99.90
7196;DHT22;3639;51.308;5.624;2023-02-24T06:09:56;4.60;99.90
7196;DHT22;3639;51.308;5.624;2023-02-24T06:12:32;4.50;99.90
7196;DHT22;3639;51.308;5.624;2023-02-24T06:14:58;4.50;99.90
7196;DHT22;3639;51.308;5.624;2023-02-24T06:17:25;4.40;99.90
7196;DHT22;3639;51.308;5.624;2023-02-24T06:19:52;4.30;99.90
7196;DHT22;3639;51.308;5.624;2023-02-24T06:22:21;4.30;99.90
7196;DHT22;3639;51.308;5.624;2023-02-24T06:24:47;4.30;99.90
7196;DHT22;3639;51.308;5.624;2023-02-24T06:27:15;4.30;99.90
7196;DHT22;3639;51.308;5.624;2023-02-24T06:29:47;4.20;99.90
7196;DHT22;3639;51.308;5.624;2023-02-24T06:32:17;4.30;99.90
7196;DHT22;3639;51.308;5.624;2023-02-24T06:34:44;4.20;99.90
7196;DHT22;3639;51.308;5.624;2023-02-24T06:37:11;4.20;99.90
7196;DHT22;3639;51.308;5.624;2023-02-24T06:39:39;4.20;99.90
7196;DHT22;3639;51.308;5.624;2023-02-24T06:42:05;4.20;99.90
7196;DHT22;3639;51.308;5.624;2023-02-24T06:44:35;4.10;99.90
7196;DHT22;3639;51.308;5.624;2023-02-24T06:47:03;4.10;99.90
7196;DHT22;3639;51.308;5.624;2023-02-24T06:49:29;4.10;99.90
7196;DHT22;3639;51.308;5.624;2023-02-24T06:51:55;4.10;99.90
7196;DHT22;3639;51.308;5.624;2023-02-24T06:54:22;4.10;99.90
7196;DHT22;3639;51.308;5.624;2023-02-24T06:56:50;4.10;99.90
7196;DHT22;3639;51.308;5.624;2023-02-24T06:59:16;4.10;99.90
7196;DHT22;3639;51.308;5.624;2023-02-24T07:02:02;4.10;99.90
7196;DHT22;3639;51.308;5.624;2023-02-24T07:04:28;4.00;99.90
7196;DHT22;3639;51.308;5.624;2023-02-24T07:06:56;4.00;99.90
7196;DHT22;3639;51.308;5.624;2023-02-24T07:09:24;4.00;99.90
7196;DHT22;3639;51.308;5.624;2023-02-24T07:11:52;4.00;99.90
7196;DHT22;3639;51.308;5.624;2023-02-24T07:14:19;4.00;99.90
7196;DHT22;3639;51.308;5.624;2023-02-24T07:16:46;4.10;99.90
7196;DHT22;3639;51.308;5.624;2023-02-24T07:19:16;4.10;99.90
7196;DHT22;3639;51.308;5.624;2023-02-24T07:21:43;4.10;99.90
7196;DHT22;3639;51.308;5.624;2023-02-24T07:24:14;4.10;99.90
7196;DHT22;3639;51.308;5.624;2023-02-24T07:26:56;4.10;99.90
7196;DHT22;3639;51.308;5.624;2023-02-24T07:29:24;4.20;99.90
7196;DHT22;3639;51.308;5.624;2023-02-24T07:31:50;4.10;99.90
7196;DHT22;3639;51.308;5.624;2023-02-24T07:34:21;4.10;99.90
7196;DHT22;3639;51.308;5.624;2023-02-24T07:36:52;4.10;99.90
7196;DHT22;3639;51.308;5.624;2023-02-24T07:39:19;4.10;99.90
7196;DHT22;3639;51.308;5.624;2023-02-24T07:41:48;4.30;99.90
7196;DHT22;3639;51.308;5.624;2023-02-24T07:44:16;4.20;99.90
7196;DHT22;3639;51.308;5.624;2023-02-24T07:46:43;4.20;99.90
7196;DHT22;3639;51.308;5.624;2023-02-24T07:49:15;4.30;99.90
7196;DHT22;3639;51.308;5.624;2023-02-24T07:51:41;4.40;99.90
7196;DHT22;3639;51.308;5.624;2023-02-24T07:54:08;4.40;99.90
7196;DHT22;3639;51.308;5.624;2023-02-24T07:56:36;4.40;99.90
7196;DHT22;3639;51.308;5.624;2023-02-24T07:59:11;4.50;99.90
7196;DHT22;3639;51.308;5.624;2023-02-24T08:01:40;4.50;99.90
7196;DHT22;3639;51.308;5.624;2023-02-24T08:04:15;4.50;99.90
7196;DHT22;3639;51.308;5.624;2023-02-24T08:06:42;4.60;99.90
7196;DHT22;3639;51.308;5.624;2023-02-24T08:09:18;4.60;99.90
7196;DHT22;3639;51.308;5.624;2023-02-24T08:14:14;4.70;99.90
7196;DHT22;3639;51.308;5.624;2023-02-24T08:16:45;4.70;99.90
7196;DHT22;3639;51.308;5.624;2023-02-24T08:19:17;4.70;99.90
7196;DHT22;3639;51.308;5.624;2023-02-24T08:21:48;4.80;99.90
7196;DHT22;3639;51.308;5.624;2023-02-24T08:24:22;4.80;99.90
7196;DHT22;3639;51.308;5.624;2023-02-24T08:26:50;4.80;99.90
7196;DHT22;3639;51.308;5.624;2023-02-24T08:29:34;4.90;99.90
7196;DHT22;3639;51.308;5.624;2023-02-24T08:32:06;4.90;99.90
7196;DHT22;3639;51.308;5.624;2023-02-24T08:34:34;5.00;99.90
7196;DHT22;3639;51.308;5.624;2023-02-24T08:37:00;5.00;99.90
7196;DHT22;3639;51.308;5.624;2023-02-24T08:39:26;5.10;99.90
7196;DHT22;3639;51.308;5.624;2023-02-24T08:41:57;5.10;99.90
7196;DHT22;3639;51.308;5.624;2023-02-24T08:44:24;5.10;99.90
7196;DHT22;3639;51.308;5.624;2023-02-24T08:46:52;5.20;99.90
7196;DHT22;3639;51.308;5.624;2023-02-24T08:49:19;5.30;99.90
7196;DHT22;3639;51.308;5.624;2023-02-24T08:51:47;5.30;99.90
7196;DHT22;3639;51.308;5.624;2023-02-24T08:54:19;5.30;99.90
7196;DHT22;3639;51.308;5.624;2023-02-24T08:56:54;5.30;99.90
7196;DHT22;3639;51.308;5.624;2023-02-24T08:59:22;5.40;99.90
7196;DHT22;3639;51.308;5.624;2023-02-24T09:02:11;5.40;99.90
7196;DHT22;3639;51.308;5.624;2023-02-24T09:07:27;5.70;99.90
7196;DHT22;3639;51.308;5.624;2023-02-24T09:09:54;5.80;99.90
7196;DHT22;3639;51.308;5.624;2023-02-24T09:12:26;5.80;99.90
7196;DHT22;3639;51.308;5.624;2023-02-24T09:15:01;5.70;99.90
7196;DHT22;3639;51.308;5.624;2023-02-24T09:17:30;5.80;99.90
7196;DHT22;3639;51.308;5.624;2023-02-24T09:20:12;5.80;99.90
7196;DHT22;3639;51.308;5.624;2023-02-24T09:22:58;5.80;99.90
7196;DHT22;3639;51.308;5.624;2023-02-24T09:25:39;5.90;99.90
7196;DHT22;3639;51.308;5.624;2023-02-24T09:30:46;6.00;99.90
7196;DHT22;3639;51.308;5.624;2023-02-24T09:33:32;6.10;99.90
7196;DHT22;3639;51.308;5.624;2023-02-24T09:36:11;6.30;99.90
7196;DHT22;3639;51.308;5.624;2023-02-24T09:38:45;6.30;99.90
7196;DHT22;3639;51.308;5.624;2023-02-24T09:44:14;6.40;99.90
7196;DHT22;3639;51.308;5.624;2023-02-24T09:49:32;6.30;99.90
7196;DHT22;3639;51.308;5.624;2023-02-24T09:52:12;6.30;99.90
7196;DHT22;3639;51.308;5.624;2023-02-24T09:54:48;6.30;99.90
7196;DHT22;3639;51.308;5.624;2023-02-24T09:57:41;6.40;99.90
7196;DHT22;3639;51.308;5.624;2023-02-24T10:00:29;6.30;99.90
7196;DHT22;3639;51.308;5.624;2023-02-24T10:03:06;6.40;99.90
7196;DHT22;3639;51.308;5.624;2023-02-24T10:05:56;6.40;99.90
7196;DHT22;3639;51.308;5.624;2023-02-24T10:08:34;6.40;99.90
7196;DHT22;3639;51.308;5.624;2023-02-24T10:11:03;6.30;99.90
7196;DHT22;3639;51.308;5.624;2023-02-24T10:13:35;6.30;99.90
7196;DHT22;3639;51.308;5.624;2023-02-24T10:16:03;6.40;99.90
7196;DHT22;3639;51.308;5.624;2023-02-24T10:18:50;6.50;99.90
7196;DHT22;3639;51.308;5.624;2023-02-24T10:21:47;6.50;99.90
7196;DHT22;3639;51.308;5.624;2023-02-24T10:24:46;6.50;99.90
7196;DHT22;3639;51.308;5.624;2023-02-24T10:27:14;6.40;99.90
7196;DHT22;3639;51.308;5.624;2023-02-24T10:30:01;6.40;99.90
7196;DHT22;3639;51.308;5.624;2023-02-24T10:32:51;6.30;99.90
7196;DHT22;3639;51.308;5.624;2023-02-24T10:35:21;6.40;99.90
7196;DHT22;3639;51.308;5.624;2023-02-24T10:37:51;6.40;99.90
7196;DHT22;3639;51.308;5.624;2023-02-24T10:40:17;6.40;99.90
7196;DHT22;3639;51.308;5.624;2023-02-24T10:43:03;6.40;99.90
7196;DHT22;3639;51.308;5.624;2023-02-24T10:45:29;6.50;99.90
7196;DHT22;3639;51.308;5.624;2023-02-24T10:47:57;6.50;99.90
7196;DHT22;3639;51.308;5.624;2023-02-24T10:50:38;6.60;99.90
7196;DHT22;3639;51.308;5.624;2023-02-24T10:53:16;6.50;99.90
7196;DHT22;3639;51.308;5.624;2023-02-24T10:56:13;6.60;99.90
7196;DHT22;3639;51.308;5.624;2023-02-24T10:59:07;6.60;99.90
7196;DHT22;3639;51.308;5.624;2023-02-24T11:01:59;6.60;99.90
7196;DHT22;3639;51.308;5.624;2023-02-24T11:04:33;6.70;99.90
7196;DHT22;3639;51.308;5.624;2023-02-24T11:07:19;6.70;99.90
7196;DHT22;3639;51.308;5.624;2023-02-24T11:10:16;6.80;99.90
7196;DHT22;3639;51.308;5.624;2023-02-24T11:12:54;6.70;99.90
7196;DHT22;3639;51.308;5.624;2023-02-24T11:15:48;6.70;99.90
7196;DHT22;3639;51.308;5.624;2023-02-24T11:18:33;6.70;99.90
7196;DHT22;3639;51.308;5.624;2023-02-24T11:21:03;6.90;99.90
7196;DHT22;3639;51.308;5.624;2023-02-24T11:23:34;7.00;99.90
7196;DHT22;3639;51.308;5.624;2023-02-24T11:26:25;7.10;99.90
7196;DHT22;3639;51.308;5.624;2023-02-24T11:28:58;7.10;99.90
7196;DHT22;3639;51.308;5.624;2023-02-24T11:36:50;7.00;99.90
7196;DHT22;3639;51.308;5.624;2023-02-24T11:42:24;7.00;99.90
7196;DHT22;3639;51.308;5.624;2023-02-24T11:47:47;7.00;99.90
7196;DHT22;3639;51.308;5.624;2023-02-24T12:01:15;7.10;99.90
7196;DHT22;3639;51.308;5.624;2023-02-24T12:03:51;7.00;99.90
7196;DHT22;3639;51.308;5.624;2023-02-24T12:06:29;7.00;99.90
7196;DHT22;3639;51.308;5.624;2023-02-24T12:09:01;7.10;99.90
7196;DHT22;3639;51.308;5.624;2023-02-24T12:14:25;7.10;99.90
7196;DHT22;3639;51.308;5.624;2023-02-24T12:17:00;7.10;99.90
7196;DHT22;3639;51.308;5.624;2023-02-24T12:19:53;7.00;99.90
7196;DHT22;3639;51.308;5.624;2023-02-24T12:22:27;6.90;99.90
7196;DHT22;3639;51.308;5.624;2023-02-24T12:24:55;6.90;99.90
7196;DHT22;3639;51.308;5.624;2023-02-24T12:27:54;6.80;99.90
7196;DHT22;3639;51.308;5.624;2023-02-24T12:30:28;6.80;99.90
7196;DHT22;3639;51.308;5.624;2023-02-24T12:33:18;6.80;99.90
7196;DHT22;3639;51.308;5.624;2023-02-24T12:38:57;6.80;99.90
7196;DHT22;3639;51.308;5.624;2023-02-24T12:46:42;6.70;99.90
7196;DHT22;3639;51.308;5.624;2023-02-24T12:56:56;6.60;99.90
7196;DHT22;3639;51.308;5.624;2023-02-24T12:59:27;6.60;99.90
7196;DHT22;3639;51.308;5.624;2023-02-24T13:02:06;6.70;99.90
7196;DHT22;3639;51.308;5.624;2023-02-24T13:04:55;6.60;99.90
7196;DHT22;3639;51.308;5.624;2023-02-24T13:12:35;6.50;99.90
7196;DHT22;3639;51.308;5.624;2023-02-24T13:15:05;6.40;99.90
7196;DHT22;3639;51.308;5.624;2023-02-24T13:17:31;6.30;99.90
7196;DHT22;3639;51.308;5.624;2023-02-24T13:20:10;6.40;99.90
7196;DHT22;3639;51.308;5.624;2023-02-24T13:22:40;6.30;99.90
7196;DHT22;3639;51.308;5.624;2023-02-24T13:27:37;6.40;99.90
7196;DHT22;3639;51.308;5.624;2023-02-24T13:30:24;6.40;99.90
7196;DHT22;3639;51.308;5.624;2023-02-24T13:33:05;6.40;99.90
7196;DHT22;3639;51.308;5.624;2023-02-24T13:35:35;6.50;99.90
7196;DHT22;3639;51.308;5.624;2023-02-24T13:38:19;6.50;99.90
7196;DHT22;3639;51.308;5.624;2023-02-24T13:40:46;6.60;99.90
7196;DHT22;3639;51.308;5.624;2023-02-24T13:43:24;6.60;99.90
7196;DHT22;3639;51.308;5.624;2023-02-24T13:45:57;6.60;99.90
7196;DHT22;3639;51.308;5.624;2023-02-24T13:54:25;6.40;99.90
7196;DHT22;3639;51.308;5.624;2023-02-24T14:02:53;6.40;99.90
7196;DHT22;3639;51.308;5.624;2023-02-24T14:05:26;6.40;99.90
7196;DHT22;3639;51.308;5.624;2023-02-24T14:07:53;6.40;99.90
7196;DHT22;3639;51.308;5.624;2023-02-24T14:10:19;6.40;99.90
7196;DHT22;3639;51.308;5.624;2023-02-24T14:12:48;6.40;99.90
7196;DHT22;3639;51.308;5.624;2023-02-24T14:15:23;6.40;99.90
7196;DHT22;3639;51.308;5.624;2023-02-24T14:18:01;6.30;99.90
7196;DHT22;3639;51.308;5.624;2023-02-24T14:20:33;6.30;99.90
7196;DHT22;3639;51.308;5.624;2023-02-24T14:23:12;6.30;99.90
7196;DHT22;3639;51.308;5.624;2023-02-24T14:25:42;6.30;99.90
7196;DHT22;3639;51.308;5.624;2023-02-24T14:28:20;6.30;99.90
7196;DHT22;3639;51.308;5.624;2023-02-24T14:30:52;6.40;99.90
7196;DHT22;3639;51.308;5.624;2023-02-24T14:33:30;6.50;99.90
7196;DHT22;3639;51.308;5.624;2023-02-24T14:35:57;6.50;99.90
7196;DHT22;3639;51.308;5.624;2023-02-24T14:40:56;6.60;99.90
7196;DHT22;3639;51.308;5.624;2023-02-24T14:43:22;6.60;99.90
7196;DHT22;3639;51.308;5.624;2023-02-24T14:45:49;6.60;99.90
7196;DHT22;3639;51.308;5.624;2023-02-24T14:48:23;6.70;99.90
7196;DHT22;3639;51.308;5.624;2023-02-24T14:50:50;6.70;99.90
7196;DHT22;3639;51.308;5.624;2023-02-24T14:53:17;6.70;99.90
7196;DHT22;3639;51.308;5.624;2023-02-24T14:55:49;6.70;99.90
7196;DHT22;3639;51.308;5.624;2023-02-24T15:00:49;6.80;99.90
7196;DHT22;3639;51.308;5.624;2023-02-24T15:05:57;6.80;99.90
7196;DHT22;3639;51.308;5.624;2023-02-24T15:10:56;7.00;99.90
7196;DHT22;3639;51.308;5.624;2023-02-24T15:18:43;7.00;99.90
7196;DHT22;3639;51.308;5.624;2023-02-24T15:24:18;7.00;99.90
7196;DHT22;3639;51.308;5.624;2023-02-24T15:29:39;7.00;99.90
7196;DHT22;3639;51.308;5.624;2023-02-24T15:32:20;6.90;99.90
7196;DHT22;3639;51.308;5.624;2023-02-24T15:34:47;6.90;99.90
7196;DHT22;3639;51.308;5.624;2023-02-24T15:39:48;6.90;99.90
7196;DHT22;3639;51.308;5.624;2023-02-24T15:44:50;6.90;99.90
7196;DHT22;3639;51.308;5.624;2023-02-24T15:47:28;6.90;99.90
7196;DHT22;3639;51.308;5.624;2023-02-24T15:49:54;7.00;99.90
7196;DHT22;3639;51.308;5.624;2023-02-24T15:52:26;7.00;99.90
7196;DHT22;3639;51.308;5.624;2023-02-24T15:54:53;7.00;99.90
7196;DHT22;3639;51.308;5.624;2023-02-24T15:57:19;7.00;99.90
7196;DHT22;3639;51.308;5.624;2023-02-24T15:59:46;6.90;99.90
7196;DHT22;3639;51.308;5.624;2023-02-24T16:02:15;7.00;99.90
7196;DHT22;3639;51.308;5.624;2023-02-24T16:04:42;7.00;99.90
7196;DHT22;3639;51.308;5.624;2023-02-24T16:07:15;7.00;99.90
7196;DHT22;3639;51.308;5.624;2023-02-24T16:09:41;6.90;99.90
7196;DHT22;3639;51.308;5.624;2023-02-24T16:12:14;6.90;99.90
7196;DHT22;3639;51.308;5.624;2023-02-24T16:14:41;6.90;99.90
7196;DHT22;3639;51.308;5.624;2023-02-24T16:17:26;6.90;99.90
7196;DHT22;3639;51.308;5.624;2023-02-24T16:19:53;6.90;99.90
7196;DHT22;3639;51.308;5.624;2023-02-24T16:22:21;6.90;99.90
7196;DHT22;3639;51.308;5.624;2023-02-24T16:24:47;6.80;99.90
7196;DHT22;3639;51.308;5.624;2023-02-24T16:27:17;6.80;99.90
7196;DHT22;3639;51.308;5.624;2023-02-24T16:29:44;6.70;99.90
7196;DHT22;3639;51.308;5.624;2023-02-24T16:32:13;6.70;99.90
7196;DHT22;3639;51.308;5.624;2023-02-24T16:34:38;6.70;99.90
7196;DHT22;3639;51.308;5.624;2023-02-24T16:37:32;6.70;99.90
7196;DHT22;3639;51.308;5.624;2023-02-24T16:39:58;6.60;99.90
7196;DHT22;3639;51.308;5.624;2023-02-24T16:42:24;6.50;99.90
7196;DHT22;3639;51.308;5.624;2023-02-24T16:44:49;6.40;99.90
7196;DHT22;3639;51.308;5.624;2023-02-24T16:47:21;6.30;99.90
7196;DHT22;3639;51.308;5.624;2023-02-24T16:49:47;6.30;99.90
7196;DHT22;3639;51.308;5.624;2023-02-24T16:52:13;6.20;99.90
7196;DHT22;3639;51.308;5.624;2023-02-24T16:54:43;6.20;99.90
7196;DHT22;3639;51.308;5.624;2023-02-24T16:57:09;6.10;99.90
7196;DHT22;3639;51.308;5.624;2023-02-24T16:59:35;6.10;99.90
7196;DHT22;3639;51.308;5.624;2023-02-24T17:02:01;6.00;99.90
7196;DHT22;3639;51.308;5.624;2023-02-24T17:04:27;6.00;99.90
7196;DHT22;3639;51.308;5.624;2023-02-24T17:06:53;5.90;99.90
7196;DHT22;3639;51.308;5.624;2023-02-24T17:09:18;5.80;99.90
7196;DHT22;3639;51.308;5.624;2023-02-24T17:11:44;5.80;99.90
7196;DHT22;3639;51.308;5.624;2023-02-24T17:14:18;5.80;99.90
7196;DHT22;3639;51.308;5.624;2023-02-24T17:16:45;5.80;99.90
7196;DHT22;3639;51.308;5.624;2023-02-24T17:19:11;5.70;99.90
7196;DHT22;3639;51.308;5.624;2023-02-24T17:21:41;5.60;99.90
7196;DHT22;3639;51.308;5.624;2023-02-24T17:24:15;5.60;99.90
7196;DHT22;3639;51.308;5.624;2023-02-24T17:26:41;5.60;99.90
7196;DHT22;3639;51.308;5.624;2023-02-24T17:29:07;5.50;99.90
7196;DHT22;3639;51.308;5.624;2023-02-24T17:31:33;5.50;99.90
7196;DHT22;3639;51.308;5.624;2023-02-24T17:33:59;5.50;99.90
7196;DHT22;3639;51.308;5.624;2023-02-24T17:36:25;5.40;99.90
7196;DHT22;3639;51.308;5.624;2023-02-24T17:38:50;5.40;99.90
7196;DHT22;3639;51.308;5.624;2023-02-24T17:41:16;5.40;99.90
7196;DHT22;3639;51.308;5.624;2023-02-24T17:43:42;5.30;99.90
7196;DHT22;3639;51.308;5.624;2023-02-24T17:46:07;5.30;99.90
7196;DHT22;3639;51.308;5.624;2023-02-24T17:48:33;5.30;99.90
7196;DHT22;3639;51.308;5.624;2023-02-24T17:50:59;5.30;99.90
7196;DHT22;3639;51.308;5.624;2023-02-24T17:53:25;5.30;99.90
7196;DHT22;3639;51.308;5.624;2023-02-24T17:56:03;5.40;99.90
7196;DHT22;3639;51.308;5.624;2023-02-24T17:58:29;5.50;99.90
7196;DHT22;3639;51.308;5.624;2023-02-24T18:00:55;5.40;99.90
7196;DHT22;3639;51.308;5.624;2023-02-24T18:03:21;5.50;99.90
7196;DHT22;3639;51.308;5.624;2023-02-24T18:05:46;5.60;99.90
7196;DHT22;3639;51.308;5.624;2023-02-24T18:08:12;5.60;99.90
7196;DHT22;3639;51.308;5.624;2023-02-24T18:10:38;5.50;99.90
7196;DHT22;3639;51.308;5.624;2023-02-24T18:13:04;5.60;99.90
7196;DHT22;3639;51.308;5.624;2023-02-24T18:15:29;5.60;99.90
7196;DHT22;3639;51.308;5.624;2023-02-24T18:17:55;5.60;99.90
7196;DHT22;3639;51.308;5.624;2023-02-24T18:20:20;5.60;99.90
7196;DHT22;3639;51.308;5.624;2023-02-24T18:22:46;5.60;99.90
7196;DHT22;3639;51.308;5.624;2023-02-24T18:25:12;5.60;99.90
7196;DHT22;3639;51.308;5.624;2023-02-24T18:27:38;5.70;99.90
7196;DHT22;3639;51.308;5.624;2023-02-24T18:30:04;5.70;99.90
7196;DHT22;3639;51.308;5.624;2023-02-24T18:32:31;5.70;99.90
7196;DHT22;3639;51.308;5.624;2023-02-24T18:34:57;5.70;99.90
7196;DHT22;3639;51.308;5.624;2023-02-24T18:37:23;5.60;99.90
7196;DHT22;3639;51.308;5.624;2023-02-24T18:39:48;5.60;99.90
7196;DHT22;3639;51.308;5.624;2023-02-24T18:42:17;5.60;99.90
7196;DHT22;3639;51.308;5.624;2023-02-24T18:44:42;5.50;99.90
7196;DHT22;3639;51.308;5.624;2023-02-24T18:47:08;5.50;99.90
7196;DHT22;3639;51.308;5.624;2023-02-24T18:49:34;5.50;99.90
7196;DHT22;3639;51.308;5.624;2023-02-24T18:52:00;5.40;99.90
7196;DHT22;3639;51.308;5.624;2023-02-24T18:54:26;5.40;99.90
7196;DHT22;3639;51.308;5.624;2023-02-24T18:56:52;5.30;99.90
7196;DHT22;3639;51.308;5.624;2023-02-24T18:59:18;5.20;99.90
7196;DHT22;3639;51.308;5.624;2023-02-24T19:01:44;5.10;99.90
7196;DHT22;3639;51.308;5.624;2023-02-24T19:04:10;5.20;99.90